Weather at Cheshnegirovo Air Base [CLOSED]

Public forecast

Using degrees Celsius for public forecast. Weather courtesy of forecast.io.

Closest aviation weather report (METAR) to Cheshnegirovo Air Base

Closest report is Plovdiv International Airport, 6.9 nm (12.8 km) WSW.

2024/06/15 05:00 (retrieved 38 minutes ago)

LBPD 150500Z AUTO 28017KT 9999 NCD 21/07 Q1013 NOSIG

Closest aviation forecast (TAF) to Cheshnegirovo Air Base

Forecast is more than 6 hours old.

Closest forecast is Kuk√ęs International Airport, 204.0 nm (377.8 km) W.

2024/06/14 18:00 Ammendment (retrieved 12 hours ago)

TAF AMD LAKU 141900Z 1418/1518 CNL